Time;durP1;ratioP1;P1;durP2;ratioP2;P2;SDS_P1;SDS_P2;PMS_P1;PMS_P2;Temp;Humidity;BMP_temperature;BMP_pressure;BME280_temperature;BME280_humidity;BME280_pressure;Samples;Min_cycle;Max_cycle;Signal;HPM_P1;HPM_P2
2022/08/17 00:01:24;;;;;;;11.65;5.90;;;;;;;21.20;82.13;100330.58;1788702;79;25713;-53
2022/08/17 00:03:52;;;;;;;8.15;5.97;;;;;;;21.16;81.17;100336.19;1788530;80;26731;-53
2022/08/17 00:06:30;;;;;;;13.95;5.42;;;;;;;21.09;81.02;100341.67;1789205;80;25697;-54
2022/08/17 00:09:01;;;;;;;13.28;5.90;;;;;;;21.06;81.61;100336.63;1787512;78;27614;-54
2022/08/17 00:11:36;;;;;;;12.43;5.70;;;;;;;21.06;81.64;100336.63;1787206;80;25792;-54
2022/08/17 00:14:14;;;;;;;9.78;6.20;;;;;;;21.08;81.71;100343.55;1787576;80;25667;-54
2022/08/17 00:16:46;;;;;;;12.28;6.85;;;;;;;21.06;81.38;100346.20;1787717;79;26820;-55
2022/08/17 00:19:16;;;;;;;11.40;5.70;;;;;;;20.99;80.75;100350.86;1787634;78;25700;-53
2022/08/17 00:21:46;;;;;;;12.98;6.55;;;;;;;20.92;81.28;100346.27;1788243;78;27602;-55
2022/08/17 00:24:14;;;;;;;13.62;6.90;;;;;;;20.89;81.74;100343.95;1795879;79;25654;-54
2022/08/17 00:26:42;;;;;;;14.83;6.90;;;;;;;20.86;81.88;100337.53;1804390;79;25751;-54
2022/08/17 00:29:10;;;;;;;9.83;6.47;;;;;;;20.88;81.94;100340.07;1804709;79;26697;-55
2022/08/17 00:31:36;;;;;;;11.78;6.50;;;;;;;20.90;81.91;100337.94;1804645;79;25494;-54
2022/08/17 00:34:07;;;;;;;17.07;6.72;;;;;;;20.93;81.94;100336.15;1804697;79;28456;-55
2022/08/17 00:36:34;;;;;;;21.75;6.37;;;;;;;20.96;81.89;100335.73;1804391;79;25699;-54
2022/08/17 00:39:01;;;;;;;11.12;6.00;;;;;;;20.98;81.89;100334.96;1804713;79;25747;-54
2022/08/17 00:41:29;;;;;;;20.45;6.80;;;;;;;21.00;81.86;100336.13;1804597;79;25811;-54
2022/08/17 00:44:00;;;;;;;18.15;7.33;;;;;;;21.01;81.76;100337.82;1804458;79;25884;-55
2022/08/17 00:46:32;;;;;;;13.28;7.05;;;;;;;20.99;81.48;100335.28;1782783;79;27339;-55
2022/08/17 00:49:00;;;;;;;14.63;6.40;;;;;;;20.99;81.61;100338.55;1761886;80;25958;-54
2022/08/17 00:51:41;;;;;;;21.15;6.78;;;;;;;20.94;81.27;100340.02;1761800;80;25621;-53
2022/08/17 00:54:24;;;;;;;17.27;5.92;;;;;;;20.93;81.51;100345.17;1772950;78;26672;-53
2022/08/17 00:56:59;;;;;;;10.28;6.17;;;;;;;20.93;81.76;100345.72;1789180;79;25981;-54
2022/08/17 00:59:31;;;;;;;15.03;6.08;;;;;;;20.90;81.83;100344.77;1788866;79;27711;-54
2022/08/17 01:01:59;;;;;;;18.12;6.53;;;;;;;20.93;81.99;100349.82;1788711;79;25722;-55
2022/08/17 01:04:28;;;;;;;13.22;7.35;;;;;;;20.95;82.04;100350.45;1788850;79;25707;-54
2022/08/17 01:06:57;;;;;;;14.83;6.25;;;;;;;20.96;81.90;100352.13;1788581;80;25778;-54
2022/08/17 01:09:25;;;;;;;13.60;7.10;;;;;;;20.91;81.42;100347.31;1788881;78;25714;-54
2022/08/17 01:11:53;;;;;;;9.33;6.15;;;;;;;20.90;81.82;100347.00;1788738;79;28363;-54
2022/08/17 01:14:23;;;;;;;8.83;6.15;;;;;;;20.88;82.18;100346.37;1788905;79;25894;-54
2022/08/17 01:16:54;;;;;;;10.78;6.42;;;;;;;20.82;82.18;100347.23;1788576;79;25807;-54
2022/08/17 01:19:29;;;;;;;18.02;6.35;;;;;;;20.79;82.12;100344.92;1789027;78;26554;-54
2022/08/17 01:22:15;;;;;;;14.85;7.00;;;;;;;20.79;82.09;100344.41;1788998;78;25736;-54
2022/08/17 01:24:53;;;;;;;14.68;6.70;;;;;;;20.75;81.71;100354.62;1800215;78;28287;-54
2022/08/17 01:27:21;;;;;;;8.90;6.00;;;;;;;20.61;81.76;100355.97;1806304;78;26038;-54
2022/08/17 01:29:55;;;;;;;18.00;6.12;;;;;;;20.54;82.18;100363.34;1768158;80;25646;-54
2022/08/17 01:32:21;;;;;;;10.48;6.12;;;;;;;20.55;83.46;100357.33;1767979;81;25930;-53
2022/08/17 01:34:49;;;;;;;18.10;6.08;;;;;;;20.54;83.05;100357.88;1767920;81;26584;-54
2022/08/17 01:37:17;;;;;;;10.18;5.67;;;;;;;20.59;83.17;100351.77;1767758;80;27671;-53
2022/08/17 01:39:52;;;;;;;20.30;7.05;;;;;;;20.62;83.10;100345.86;1767877;81;25798;-54
2022/08/17 01:42:42;;;;;;;14.73;6.47;;;;;;;20.62;82.96;100342.62;1767994;80;26420;-53
2022/08/17 01:45:15;;;;;;;11.30;6.53;;;;;;;20.58;82.53;100343.25;1768117;80;25897;-54
2022/08/17 01:47:42;;;;;;;16.75;6.78;;;;;;;20.57;82.82;100338.33;1737422;82;25542;-54
2022/08/17 01:50:14;;;;;;;11.80;5.80;;;;;;;20.61;83.29;100340.94;1737439;82;27437;-54
2022/08/17 01:52:49;;;;;;;12.03;5.83;;;;;;;20.66;83.20;100344.94;1737559;82;25891;-53
2022/08/17 01:55:21;;;;;;;13.40;5.80;;;;;;;20.63;83.16;100341.56;1764300;81;25744;-54
2022/08/17 01:57:48;;;;;;;16.07;6.12;;;;;;;20.63;83.29;100332.00;1769648;80;25815;-54
2022/08/17 02:00:17;;;;;;;7.45;5.33;;;;;;;20.69;83.54;100334.92;1811616;79;25691;-55
2022/08/17 02:02:44;;;;;;;10.35;6.05;;;;;;;20.69;83.45;100334.41;1772613;80;27485;-54
2022/08/17 02:05:11;;;;;;;12.40;6.35;;;;;;;20.69;83.45;100330.31;1811821;78;25770;-53
2022/08/17 02:07:39;;;;;;;17.25;6.80;;;;;;;20.70;83.35;100326.53;1773277;80;25744;-55
2022/08/17 02:10:08;;;;;;;10.65;5.87;;;;;;;20.69;83.21;100326.72;1811694;78;25875;-55
2022/08/17 02:12:36;;;;;;;12.73;5.78;;;;;;;20.68;83.23;100323.16;1772903;80;25725;-52
2022/08/17 02:15:08;;;;;;;16.55;5.92;;;;;;;20.66;83.06;100325.80;1812139;78;27646;-54
2022/08/17 02:17:34;;;;;;;10.35;6.15;;;;;;;20.58;82.71;100330.42;1772987;80;25759;-54
2022/08/17 02:20:02;;;;;;;16.50;6.25;;;;;;;20.56;82.84;100329.81;1772807;80;25660;-54
2022/08/17 02:22:29;;;;;;;17.82;6.58;;;;;;;20.53;83.06;100322.58;1811783;79;26636;-54
2022/08/17 02:24:57;;;;;;;12.88;5.78;;;;;;;20.53;83.24;100319.30;1764975;80;25721;-54
2022/08/17 02:27:24;;;;;;;20.70;6.60;;;;;;;20.52;83.80;100314.89;1810778;79;27436;-55
2022/08/17 02:29:51;;;;;;;11.43;6.35;;;;;;;20.50;83.58;100321.08;1811776;78;25731;-54
2022/08/17 02:32:25;;;;;;;19.75;7.78;;;;;;;20.49;83.60;100318.03;1812286;78;25746;-53
2022/08/17 02:34:52;;;;;;;14.15;6.80;;;;;;;20.49;83.55;100320.26;1811751;78;26738;-54
2022/08/17 02:37:18;;;;;;;17.65;6.85;;;;;;;20.52;83.62;100323.08;1811827;77;25739;-54
2022/08/17 02:39:46;;;;;;;14.95;6.47;;;;;;;20.53;83.53;100324.77;1812037;78;28424;-55
2022/08/17 02:42:14;;;;;;;16.57;6.70;;;;;;;20.54;83.16;100335.16;1811749;77;25669;-55
2022/08/17 02:44:41;;;;;;;18.23;6.83;;;;;;;20.43;82.66;100340.24;1812006;78;25631;-54
2022/08/17 02:47:10;;;;;;;10.78;6.03;;;;;;;20.33;82.59;100342.02;1811815;78;25794;-54
2022/08/17 02:49:37;;;;;;;14.55;6.90;;;;;;;20.29;83.29;100337.19;1772853;80;25858;-54
2022/08/17 02:52:06;;;;;;;23.67;6.92;;;;;;;20.31;83.88;100340.55;1807651;77;27424;-54
2022/08/17 02:54:38;;;;;;;14.70;6.85;;;;;;;20.37;84.37;100342.97;1787813;79;25974;-54
2022/08/17 02:57:05;;;;;;;12.25;6.37;;;;;;;20.38;84.12;100351.48;1803269;78;25822;-54
2022/08/17 02:59:31;;;;;;;10.85;6.58;;;;;;;20.43;84.60;100353.05;1804214;79;26563;-54
2022/08/17 03:01:58;;;;;;;13.68;8.05;;;;;;;20.43;84.24;100348.44;1800130;79;26012;-55
2022/08/17 03:04:25;;;;;;;17.67;6.87;;;;;;;20.42;84.39;100355.45;1800351;79;27623;-54
2022/08/17 03:06:51;;;;;;;14.65;7.10;;;;;;;20.46;84.65;100354.00;1800120;79;25738;-55
2022/08/17 03:09:18;;;;;;;18.73;7.05;;;;;;;20.46;84.37;100355.36;1800303;79;25646;-55
2022/08/17 03:11:45;;;;;;;10.72;7.00;;;;;;;20.50;84.52;100356.60;1800171;78;25645;-55
2022/08/17 03:14:12;;;;;;;12.03;6.67;;;;;;;20.55;84.45;100364.16;1800241;78;25399;-55
2022/08/17 03:16:39;;;;;;;14.47;6.87;;;;;;;20.58;84.66;100365.94;1800215;78;27594;-55
2022/08/17 03:19:06;;;;;;;14.60;6.40;;;;;;;20.56;84.43;100362.61;1799951;79;25914;-55
2022/08/17 03:21:33;;;;;;;14.70;7.40;;;;;;;20.56;85.47;100365.34;1800230;79;25792;-54
2022/08/17 03:24:00;;;;;;;18.92;7.30;;;;;;;20.48;85.71;100363.66;1792018;79;25789;-54
2022/08/17 03:26:27;;;;;;;24.10;7.65;;;;;;;20.48;85.17;100369.66;1778128;80;25701;-54
2022/08/17 03:28:54;;;;;;;18.73;7.30;;;;;;;20.52;85.19;100372.80;1778170;80;27482;-54
2022/08/17 03:31:21;;;;;;;20.80;9.83;;;;;;;20.54;85.36;100372.91;1778167;80;25814;-55
2022/08/17 03:33:47;;;;;;;15.38;8.38;;;;;;;20.57;85.22;100376.59;1778179;80;25708;-54
2022/08/17 03:36:14;;;;;;;17.52;7.35;;;;;;;20.61;85.17;100375.09;1777858;80;25796;-54
2022/08/17 03:38:41;;;;;;;21.30;7.78;;;;;;;20.64;85.15;100377.41;1778015;80;25974;-54
2022/08/17 03:41:08;;;;;;;17.35;6.92;;;;;;;20.65;85.02;100378.23;1778046;80;27701;-55
2022/08/17 03:43:35;;;;;;;13.22;6.55;;;;;;;20.64;85.67;100377.41;1777921;79;25811;-55
2022/08/17 03:57:09;;;;;;;13.78;8.13;;;;;;;20.79;84.67;100374.98;1801256;78;25730;-54
2022/08/17 03:59:37;;;;;;;13.40;7.70;;;;;;;20.83;85.27;100369.42;1806713;78;25784;-54
2022/08/17 04:02:12;;;;;;;15.48;7.83;;;;;;;20.87;85.25;100377.48;1806168;78;26378;-55
2022/08/17 04:04:39;;;;;;;26.90;7.50;;;;;;;20.92;85.10;100378.21;1796187;78;25671;-55
2022/08/17 04:07:07;;;;;;;15.60;8.03;;;;;;;21.00;85.24;100383.98;1795166;79;27579;-55
2022/08/17 04:09:35;;;;;;;14.25;7.35;;;;;;;21.06;85.17;100376.28;1795020;78;25948;-54
2022/08/17 04:12:03;;;;;;;14.03;8.18;;;;;;;21.10;84.95;100377.55;1795063;79;25763;-54
2022/08/17 04:14:35;;;;;;;14.45;7.70;;;;;;;21.11;85.00;100384.70;1795028;78;26737;-55
2022/08/17 04:16:59;;;;;;;16.60;8.18;;;;;;;21.17;85.06;100383.83;1795089;78;26093;-54
2022/08/17 04:19:27;;;;;;;16.77;7.78;;;;;;;21.25;85.15;100378.62;1794964;78;27458;-55
2022/08/17 04:21:54;;;;;;;22.87;9.48;;;;;;;21.37;85.44;100382.91;1794965;79;25939;-54
2022/08/17 04:24:21;;;;;;;24.15;9.95;;;;;;;21.44;85.13;100378.23;1783702;78;25645;-53
2022/08/17 04:26:48;;;;;;;16.23;9.83;;;;;;;21.49;84.97;100374.84;1772677;80;25837;-54
2022/08/17 04:29:15;;;;;;;21.37;10.03;;;;;;;21.49;84.44;100374.30;1773006;79;25696;-55
2022/08/17 04:31:43;;;;;;;23.40;10.40;;;;;;;21.54;84.57;100377.75;1772843;80;27546;-54
2022/08/17 04:34:11;;;;;;;16.93;10.60;;;;;;;21.56;84.01;100376.47;1773043;79;25711;-55
2022/08/17 04:36:38;;;;;;;17.50;10.75;;;;;;;21.54;83.61;100375.02;1772662;79;25750;-55
2022/08/17 04:39:05;;;;;;;29.82;11.57;;;;;;;21.54;84.09;100375.87;1772714;80;25907;-55
2022/08/17 04:44:17;;;;;;;18.07;9.55;;;;;;;21.61;84.36;100379.13;1772725;80;28472;-54
2022/08/17 04:46:44;;;;;;;17.95;9.65;;;;;;;21.62;84.15;100373.97;1765954;79;25679;-55
2022/08/17 04:49:11;;;;;;;22.07;9.33;;;;;;;21.67;84.09;100371.40;1761934;81;25621;-55
2022/08/17 04:51:43;;;;;;;17.57;9.35;;;;;;;21.66;83.46;100377.42;1761678;80;25812;-55
2022/08/17 04:54:17;;;;;;;18.32;8.83;;;;;;;21.61;83.40;100381.86;1773842;80;26453;-54
2022/08/17 04:56:46;;;;;;;17.67;9.63;;;;;;;21.55;83.06;100379.44;1788730;78;28377;-55
2022/08/17 04:59:20;;;;;;;22.02;9.43;;;;;;;21.52;83.44;100382.09;1796412;78;25770;-55
2022/08/17 05:01:50;;;;;;;23.55;9.98;;;;;;;21.50;83.17;100381.46;1796912;79;25766;-55
2022/08/17 05:04:22;;;;;;;34.58;16.32;;;;;;;21.50;83.30;100382.83;1797275;79;25993;-55
2022/08/17 05:06:50;;;;;;;22.80;11.38;;;;;;;21.50;83.25;100386.94;1797348;78;26343;-55
2022/08/17 05:09:17;;;;;;;13.15;9.00;;;;;;;21.50;83.11;100384.74;1797014;79;27549;-54
2022/08/17 05:11:46;;;;;;;12.75;9.30;;;;;;;21.49;83.22;100386.63;1796851;79;26087;-55
2022/08/17 05:14:14;;;;;;;25.85;10.93;;;;;;;21.55;83.77;100394.48;1796911;79;25782;-56
2022/08/17 05:16:40;;;;;;;22.17;9.40;;;;;;;21.57;83.42;100401.96;1797230;78;25797;-55
2022/08/17 05:19:07;;;;;;;25.68;9.63;;;;;;;21.61;83.82;100396.92;1797100;79;25767;-54
2022/08/17 05:21:34;;;;;;;23.07;9.55;;;;;;;21.63;83.69;100396.18;1796757;78;27478;-55
2022/08/17 05:24:02;;;;;;;26.20;11.43;;;;;;;21.72;83.77;100396.23;1802502;79;25998;-55
2022/08/17 05:26:29;;;;;;;19.37;11.00;;;;;;;21.79;83.69;100404.38;1811833;78;25754;-55
2022/08/17 05:28:58;;;;;;;21.10;10.25;;;;;;;21.82;83.41;100406.70;1811953;79;25894;-55
2022/08/17 05:31:26;;;;;;;24.70;11.97;;;;;;;21.84;83.23;100405.41;1812021;79;26124;-55
2022/08/17 05:33:53;;;;;;;21.37;11.50;;;;;;;21.85;83.39;100407.09;1811802;78;27510;-54
2022/08/17 05:36:20;;;;;;;26.75;10.65;;;;;;;21.84;83.15;100400.48;1811516;78;26112;-55
2022/08/17 05:38:47;;;;;;;17.85;11.18;;;;;;;21.89;83.22;100408.34;1811711;78;26216;-55
2022/08/17 05:41:14;;;;;;;18.32;10.68;;;;;;;22.01;83.00;100411.72;1811748;78;26697;-52
2022/08/17 05:43:41;;;;;;;16.73;10.25;;;;;;;22.04;82.38;100414.03;1811808;79;25809;-54
2022/08/17 05:46:25;;;;;;;17.62;9.90;;;;;;;22.00;81.80;100417.74;1807411;78;27541;-55
2022/08/17 05:49:01;;;;;;;15.35;9.50;;;;;;;22.05;81.61;100415.17;1800095;78;25761;-55
2022/08/17 05:51:54;;;;;;;16.65;10.08;;;;;;;22.08;80.96;100415.28;1800183;78;25760;-55
2022/08/17 05:54:45;;;;;;;14.25;9.25;;;;;;;22.17;80.98;100416.69;1806240;78;25845;-55
2022/08/17 05:57:44;;;;;;;12.65;8.95;;;;;;;22.29;80.63;100418.18;1772848;80;25776;-55
2022/08/17 06:00:32;;;;;;;16.97;10.32;;;;;;;22.39;79.31;100416.30;1773221;80;28337;-55
2022/08/17 06:03:24;;;;;;;17.77;10.05;;;;;;;22.47;79.49;100417.96;1756336;81;26533;-55
2022/08/17 06:06:28;;;;;;;19.30;9.90;;;;;;;22.62;79.56;100423.94;1731666;81;25750;-56
2022/08/17 06:09:06;;;;;;;15.93;9.00;;;;;;;22.75;78.60;100426.25;1756660;81;25695;-55
2022/08/17 06:12:06;;;;;;;17.07;9.05;;;;;;;22.88;78.64;100414.31;1756035;81;25781;-55
2022/08/17 06:15:09;;;;;;;17.87;9.53;;;;;;;22.96;77.27;100414.84;1756340;81;28537;-54
2022/08/17 06:17:38;;;;;;;9.68;7.65;;;;;;;23.08;77.23;100409.46;1756594;81;25701;-55
2022/08/17 06:20:12;;;;;;;15.43;8.70;;;;;;;23.10;75.35;100414.16;1756252;81;25835;-55
2022/08/17 06:22:47;;;;;;;14.30;7.47;;;;;;;23.16;74.51;100417.08;1773181;79;25786;-54
2022/08/17 06:25:32;;;;;;;19.45;8.33;;;;;;;23.23;74.27;100419.23;1757703;81;25824;-55
2022/08/17 06:28:15;;;;;;;16.50;7.90;;;;;;;23.38;74.42;100406.50;1757149;81;27637;-55
2022/08/17 06:30:48;;;;;;;18.35;7.90;;;;;;;23.54;74.16;100404.49;1757071;80;25498;-55
2022/08/17 06:33:23;;;;;;;11.15;7.17;;;;;;;23.63;73.69;100394.56;1817428;77;25433;-54
2022/08/17 06:36:23;;;;;;;15.03;7.67;;;;;;;23.72;73.36;100393.98;1817901;78;26769;-54
2022/08/17 06:39:16;;;;;;;12.35;7.05;;;;;;;23.74;72.40;100399.27;1812313;78;26083;-55
2022/08/17 06:42:15;;;;;;;16.65;7.17;;;;;;;23.78;72.42;100398.27;1818086;77;28472;-55
2022/08/17 06:44:57;;;;;;;14.38;7.12;;;;;;;23.79;71.45;100401.31;1816706;77;25751;-55
2022/08/17 06:47:48;;;;;;;15.15;7.12;;;;;;;23.83;70.74;100403.36;1802199;78;25791;-55
2022/08/17 06:50:47;;;;;;;11.08;6.20;;;;;;;23.88;71.00;100397.17;1800067;79;26710;-54
2022/08/17 06:53:31;;;;;;;14.38;6.53;;;;;;;24.00;70.91;100395.30;1800314;78;26160;-55
2022/08/17 06:56:09;;;;;;;10.82;6.00;;;;;;;24.13;70.36;100394.26;1796996;78;27469;-55
2022/08/17 06:58:40;;;;;;;11.05;5.72;;;;;;;24.23;69.71;100386.27;1797403;78;25793;-56
2022/08/17 07:01:28;;;;;;;7.50;4.85;;;;;;;24.28;68.00;100395.73;1770534;79;25776;-54
2022/08/17 07:04:15;;;;;;;7.92;4.70;;;;;;;24.30;67.11;100399.92;1770694;79;25763;-54
2022/08/17 07:06:52;;;;;;;11.88;4.22;;;;;;;24.41;66.83;100402.92;1732732;80;25815;-53
2022/08/17 07:09:34;;;;;;;8.60;4.40;;;;;;;24.50;65.40;100401.50;1764929;80;27797;-54
2022/08/17 07:12:18;;;;;;;9.80;4.10;;;;;;;24.58;64.87;100401.66;1770267;79;25768;-54
2022/08/17 07:15:02;;;;;;;;;;;;;;;24.59;64.58;100404.72;1773390;80;26302;-52
2022/08/17 07:17:28;;;;;;;;;;;;;;;24.65;65.40;100400.48;1773281;81;25890;-54
2022/08/17 07:20:07;;;;;;;6.15;5.22;;;;;;;24.80;65.33;100406.05;1770671;80;25686;-54
2022/08/17 07:22:48;;;;;;;14.35;5.42;;;;;;;24.75;64.26;100407.33;1770399;81;27483;-53
2022/08/17 07:25:21;;;;;;;10.98;5.97;;;;;;;24.69;64.81;100407.73;1800172;79;26716;-55
2022/08/17 07:27:55;;;;;;;12.20;5.45;;;;;;;24.61;65.06;100406.14;1803138;79;25682;-55
2022/08/17 07:30:32;;;;;;;13.15;5.22;;;;;;;24.71;65.30;100407.48;1804807;79;26815;-53
2022/08/17 07:33:10;;;;;;;10.08;5.17;;;;;;;24.71;64.79;100404.73;1804675;79;25671;-53
2022/08/17 07:35:43;;;;;;;13.55;5.97;;;;;;;24.68;64.45;100408.81;1804054;79;45635;-55
2022/08/17 07:38:26;;;;;;;12.43;5.50;;;;;;;24.75;64.90;100400.45;1802076;79;25852;-55
2022/08/17 07:41:01;;;;;;;7.13;5.37;;;;;;;24.81;64.54;100408.59;1804885;79;25849;-54
2022/08/17 07:43:42;;;;;;;10.30;5.55;;;;;;;24.78;65.06;100417.30;1804482;79;25968;-56
2022/08/17 07:49:14;;;;;;;18.98;5.30;;;;;;;24.70;65.46;100421.80;1772889;80;26925;-54
2022/08/17 07:51:52;;;;;;;7.20;4.67;;;;;;;24.64;64.84;100424.10;1811738;78;25763;-56
2022/08/17 07:54:24;;;;;;;16.30;4.90;;;;;;;24.64;65.47;100430.42;1772111;80;26519;-55
2022/08/17 07:57:02;;;;;;;11.03;4.73;;;;;;;24.60;65.11;100425.12;1809775;79;26668;-54
2022/08/17 07:59:36;;;;;;;8.03;4.22;;;;;;;24.49;65.11;100428.69;1800816;78;25731;-55
2022/08/17 08:02:15;;;;;;;13.03;4.45;;;;;;;24.43;65.44;100435.97;1799049;79;27010;-55
2022/08/17 08:04:49;;;;;;;12.82;4.90;;;;;;;24.41;65.43;100437.28;1799490;79;26160;-55
2022/08/17 08:07:22;;;;;;;9.70;4.95;;;;;;;24.46;65.72;100439.63;1777106;79;25717;-55
2022/08/17 08:10:14;;;;;;;8.90;5.28;;;;;;;24.50;65.48;100431.19;1799846;79;25789;-54
2022/08/17 08:12:46;;;;;;;14.80;5.37;;;;;;;24.51;65.65;100434.80;1799140;79;25731;-55
2022/08/17 08:15:29;;;;;;;10.08;5.05;;;;;;;24.33;65.28;100444.81;1799527;79;27650;-55
2022/08/17 08:18:01;;;;;;;12.40;5.67;;;;;;;24.33;65.85;100434.33;1799128;79;25675;-55
2022/08/17 08:20:52;;;;;;;14.45;5.72;;;;;;;24.27;65.50;100437.48;1798996;79;25684;-55
2022/08/17 08:23:39;;;;;;;11.33;5.97;;;;;;;24.14;65.57;100431.66;1799274;79;25847;-55
2022/08/17 08:26:43;;;;;;;9.23;5.33;;;;;;;24.04;66.13;100435.51;1796370;79;25851;-54
2022/08/17 08:29:51;;;;;;;12.78;6.00;;;;;;;24.14;66.36;100426.72;1796952;79;27469;-56
2022/08/17 08:33:02;;;;;;;16.20;6.40;;;;;;;24.37;66.43;100427.30;1796771;79;25778;-55
2022/08/17 08:35:56;;;;;;;16.62;6.50;;;;;;;24.67;66.04;100420.36;1796545;79;25811;-55
2022/08/17 08:38:49;;;;;;;12.03;5.45;;;;;;;25.04;64.82;100428.89;1796623;79;25892;-55
2022/08/17 08:41:31;;;;;;;13.13;6.03;;;;;;;25.36;63.82;100425.73;1796659;79;25477;-55
2022/08/17 08:44:12;;;;;;;15.72;6.40;;;;;;;25.81;63.45;100417.83;1796396;79;28387;-55
2022/08/17 08:47:13;;;;;;;23.60;6.22;;;;;;;26.08;63.23;100422.16;1798826;79;25770;-54
2022/08/17 08:50:00;;;;;;;12.95;6.35;;;;;;;26.07;60.88;100426.00;1800590;79;25684;-55
2022/08/17 08:53:02;;;;;;;17.90;6.40;;;;;;;26.06;61.15;100421.57;1800877;79;25813;-56
2022/08/17 08:56:08;;;;;;;12.93;6.87;;;;;;;26.36;61.70;100423.23;1799680;78;25809;-55
2022/08/17 08:59:22;;;;;;;14.07;6.95;;;;;;;26.67;61.21;100420.41;1800328;79;27466;-55
2022/08/17 09:02:25;;;;;;;13.55;6.17;;;;;;;26.67;59.97;100424.55;1799715;79;26113;-55
2022/08/17 09:05:01;;;;;;;14.58;6.10;;;;;;;26.65;60.23;100424.52;1710057;82;25803;-55
2022/08/17 09:07:40;;;;;;;13.25;6.20;;;;;;;26.60;60.16;100420.28;1740908;80;26828;-55
2022/08/17 09:10:30;;;;;;;9.03;6.95;;;;;;;26.66;60.11;100415.98;1789567;78;25696;-56
2022/08/17 09:13:20;;;;;;;14.60;6.60;;;;;;;26.84;59.82;100424.58;1811473;78;27628;-54
2022/08/17 09:15:58;;;;;;;13.43;6.47;;;;;;;27.06;59.49;100426.52;1806384;78;25923;-55
2022/08/17 09:18:32;;;;;;;10.55;6.53;;;;;;;27.48;57.66;100417.69;1771362;79;25699;-54
2022/08/17 09:21:12;;;;;;;10.70;6.70;;;;;;;27.93;56.28;100417.08;1806346;79;26804;-55
2022/08/17 09:23:58;;;;;;;16.07;6.10;;;;;;;28.15;56.27;100415.38;1807246;78;26045;-55
2022/08/17 09:26:24;;;;;;;9.95;6.60;;;;;;;28.10;55.66;100417.02;1804779;78;27463;-55
2022/08/17 09:28:55;;;;;;;12.65;6.40;;;;;;;27.95;55.30;100426.48;1807546;79;26099;-54
2022/08/17 09:31:34;;;;;;;9.98;7.10;;;;;;;27.60;54.90;100423.63;1807864;79;25737;-54
2022/08/17 09:34:17;;;;;;;10.48;6.33;;;;;;;27.23;56.26;100443.05;1807642;79;25873;-55
2022/08/17 09:37:04;;;;;;;12.95;7.40;;;;;;;27.01;57.42;100436.94;1807762;79;26475;-55
2022/08/17 09:39:41;;;;;;;10.98;6.90;;;;;;;26.85;58.02;100435.05;1807106;79;28376;-55
2022/08/17 09:42:28;;;;;;;8.93;6.20;;;;;;;26.74;58.30;100434.05;1807578;79;26039;-55
2022/08/17 09:45:23;;;;;;;9.85;6.50;;;;;;;26.61;58.57;100435.75;1806893;79;25775;-55
2022/08/17 09:48:20;;;;;;;11.43;6.42;;;;;;;26.38;59.22;100441.74;1780391;79;26587;-56
2022/08/17 09:51:05;;;;;;;12.90;7.33;;;;;;;26.22;59.80;100441.45;1742051;82;25494;-54
2022/08/17 09:53:38;;;;;;;10.88;7.10;;;;;;;26.21;60.21;100447.23;1784560;79;27615;-54
2022/08/17 09:56:40;;;;;;;12.30;7.08;;;;;;;26.19;60.37;100449.39;1810193;79;33754;-55
2022/08/17 09:59:18;;;;;;;9.30;5.72;;;;;;;26.25;60.35;100448.42;1807714;79;25810;-54
2022/08/17 10:02:18;;;;;;;9.35;6.10;;;;;;;26.99;60.05;100442.44;1799157;79;26005;-53
2022/08/17 10:05:24;;;;;;;11.22;5.30;;;;;;;27.48;58.68;100438.97;1799574;79;25762;-54
2022/08/17 10:08:08;;;;;;;11.50;5.53;;;;;;;28.61;54.77;100436.50;1799427;79;28440;-55
2022/08/17 10:10:58;;;;;;;12.00;5.40;;;;;;;28.86;52.89;100429.50;1787589;79;25853;-55
2022/08/17 10:13:42;;;;;;;8.33;5.50;;;;;;;29.45;52.33;100431.22;1757729;79;25807;-55
2022/08/17 10:16:20;;;;;;;8.75;4.97;;;;;;;30.71;49.01;100435.28;1797929;79;25813;-54
2022/08/17 10:19:07;;;;;;;9.10;5.05;;;;;;;31.73;48.78;100426.38;1799428;79;25714;-54
2022/08/17 10:27:36;;;;;;;5.25;4.62;;;;;;;32.33;43.87;100428.77;1806547;77;25722;-55
2022/08/17 10:30:07;;;;;;;8.05;4.95;;;;;;;32.44;43.12;100420.03;1809868;78;26619;-55
2022/08/17 10:32:54;;;;;;;6.90;4.25;;;;;;;32.97;42.15;100421.20;1806496;79;25952;-55
2022/08/17 10:35:53;;;;;;;6.70;4.08;;;;;;;33.66;41.66;100415.35;1805968;78;27391;-56
2022/08/17 10:38:47;;;;;;;5.85;4.33;;;;;;;34.27;40.70;100407.73;1817569;77;25776;-55
2022/08/17 10:41:41;;;;;;;10.48;4.20;;;;;;;35.02;39.40;100411.44;1806731;78;25703;-56
2022/08/17 10:44:29;;;;;;;7.83;3.50;;;;;;;34.85;38.57;100404.21;1806361;78;25770;-55
2022/08/17 10:47:13;;;;;;;9.65;3.90;;;;;;;34.45;37.41;100404.67;1796673;78;25766;-55
2022/08/17 10:49:48;;;;;;;7.92;4.05;;;;;;;34.70;38.12;100399.73;1791693;79;27321;-56
2022/08/17 10:52:29;;;;;;;6.05;3.52;;;;;;;35.30;36.90;100398.00;1799092;79;25789;-55
2022/08/17 10:55:09;;;;;;;7.72;3.58;;;;;;;34.89;37.01;100399.09;1799300;79;25677;-55
2022/08/17 10:57:41;;;;;;;7.28;3.17;;;;;;;35.24;36.71;100392.53;1799643;79;25984;-56
2022/08/17 11:00:28;;;;;;;10.50;4.03;;;;;;;35.84;36.89;100389.24;1802940;79;26409;-55
2022/08/17 11:02:56;;;;;;;9.23;3.95;;;;;;;36.47;35.03;100386.59;1790842;79;27496;-56
2022/08/17 11:05:39;;;;;;;6.33;4.03;;;;;;;36.92;34.64;100380.63;1787247;79;26362;-55
2022/08/17 11:08:57;;;;;;;5.78;3.70;;;;;;;36.46;35.05;100383.53;1810315;79;25802;-56
2022/08/17 11:11:51;;;;;;;19.82;6.85;;;;;;;35.85;35.14;100386.70;1810172;79;26497;-56
2022/08/17 11:14:48;;;;;;;27.30;9.58;;;;;;;35.08;35.86;100389.22;1808278;79;25753;-56
2022/08/17 11:17:26;;;;;;;10.23;4.33;;;;;;;34.92;36.54;100384.51;1809728;79;27487;-56
2022/08/17 11:20:36;;;;;;;37.53;11.38;;;;;;;35.67;35.75;100389.09;1810176;79;25859;-56
2022/08/17 11:23:20;;;;;;;7.60;3.72;;;;;;;35.96;34.57;100377.50;1809933;79;25667;-56
2022/08/17 11:25:54;;;;;;;10.38;3.75;;;;;;;36.06;34.64;100379.80;1780007;80;25910;-56
2022/08/17 11:28:33;;;;;;;9.35;3.42;;;;;;;36.33;34.20;100378.25;1779584;80;25772;-56
2022/08/17 11:31:10;;;;;;;13.50;5.30;;;;;;;36.02;33.12;100379.05;1779539;79;27484;-56
2022/08/17 11:33:49;;;;;;;8.03;4.00;;;;;;;36.37;33.95;100383.22;1778493;79;26267;-58
2022/08/17 11:36:30;;;;;;;7.62;3.87;;;;;;;36.68;33.60;100381.84;1780016;79;25743;-57
2022/08/17 11:39:40;;;;;;;9.13;3.53;;;;;;;37.57;33.64;100382.38;1779302;79;25956;-56
2022/08/17 11:42:25;;;;;;;7.67;3.20;;;;;;;37.96;30.19;100373.57;1742373;82;25720;-55
2022/08/17 11:44:59;;;;;;;9.05;3.20;;;;;;;37.12;32.10;100387.05;1742159;81;27470;-55
2022/08/17 11:53:39;;;;;;;7.05;3.60;;;;;;;34.18;36.13;100381.09;1794100;79;25779;-55
2022/08/17 11:56:14;;;;;;;8.25;3.87;;;;;;;33.87;37.46;100385.77;1770485;79;26406;-54
2022/08/17 11:58:44;;;;;;;13.60;3.92;;;;;;;33.32;38.89;100377.33;1786955;78;27741;-55
2022/08/17 12:01:28;;;;;;;11.78;3.75;;;;;;;33.65;38.77;100376.59;1794142;79;25694;-55
2022/08/17 12:04:32;;;;;;;8.55;3.33;;;;;;;34.40;37.92;100378.22;1784263;79;25752;-55
2022/08/17 12:07:20;;;;;;;5.08;2.92;;;;;;;35.56;37.16;100381.52;1741498;82;26074;-55
2022/08/17 12:09:50;;;;;;;4.08;2.72;;;;;;;36.72;34.38;100375.02;1784415;78;25427;-56
2022/08/17 12:12:34;;;;;;;4.20;2.98;;;;;;;37.59;32.57;100378.08;1784307;79;28473;-55
2022/08/17 12:15:06;;;;;;;4.55;2.80;;;;;;;38.31;31.65;100376.31;1784007;79;25711;-56
2022/08/17 12:17:34;;;;;;;6.53;2.70;;;;;;;38.78;30.48;100372.69;1784740;80;25745;-56
2022/08/17 12:20:20;;;;;;;6.05;2.65;;;;;;;39.21;29.51;100369.99;1784735;79;25813;-57
2022/08/17 12:23:03;;;;;;;5.40;2.67;;;;;;;39.56;29.72;100370.61;1780017;80;25695;-56
2022/08/17 12:25:44;;;;;;;7.20;3.25;;;;;;;40.16;28.22;100369.02;1808635;78;27671;-56
2022/08/17 12:28:31;;;;;;;4.97;2.50;;;;;;;40.09;27.93;100367.33;1798908;78;26141;-56
2022/08/17 12:31:02;;;;;;;6.95;2.87;;;;;;;40.57;27.31;100360.77;1772736;80;25788;-56
2022/08/17 12:33:29;;;;;;;9.55;3.33;;;;;;;40.60;28.43;100362.92;1771111;80;25960;-57